Time;durP1;ratioP1;P1;durP2;ratioP2;P2;SDS_P1;SDS_P2;PMS_P1;PMS_P2;Temp;Humidity;BMP_temperature;BMP_pressure;BME280_temperature;BME280_humidity;BME280_pressure;Samples;Min_cycle;Max_cycle;Signal;HPM_P1;HPM_P2
2023/09/08 00:02:10;;;;;;;;;19.50;17.50;;;;;25.00;50.49;101841.95;110151;1251;20077;-36
2023/09/08 00:04:38;;;;;;;;;15.00;15.00;;;;;24.98;50.47;101838.45;110039;1265;18889;-36
2023/09/08 00:07:05;;;;;;;;;17.00;15.00;;;;;24.97;50.48;101840.02;110123;1251;20805;-36
2023/09/08 00:09:32;;;;;;;;;18.00;17.00;;;;;24.97;50.62;101839.77;110188;1265;19969;-35
2023/09/08 00:12:00;;;;;;;;;15.33;14.67;;;;;24.95;50.39;101833.86;110156;1265;18768;-35
2023/09/08 00:14:27;;;;;;;;;15.00;14.00;;;;;24.96;50.40;101831.57;110133;1253;20825;-36
2023/09/08 00:16:55;;;;;;;;;18.00;15.50;;;;;24.96;50.45;101830.10;110146;1262;20037;-36
2023/09/08 00:19:22;;;;;;;;;15.00;14.00;;;;;24.94;50.41;101831.45;110183;1257;20072;-36
2023/09/08 00:21:50;;;;;;;;;14.00;13.67;;;;;24.92;50.37;101831.50;110165;1251;20901;-35
2023/09/08 00:24:17;;;;;;;;;19.00;17.00;;;;;24.91;50.43;101824.42;110158;1265;18607;-36
2023/09/08 00:26:45;;;;;;;;;15.50;15.50;;;;;24.94;50.31;101831.56;110150;1251;20142;-36
2023/09/08 00:29:12;;;;;;;;;17.00;14.00;;;;;24.94;50.11;101831.34;109885;1251;388189;-36
2023/09/08 00:31:39;;;;;;;;;14.00;14.00;;;;;24.94;50.32;101833.48;110143;1265;22339;-36
2023/09/08 00:34:06;;;;;;;;;17.33;15.67;;;;;24.96;50.17;101831.08;110163;1259;20118;-35
2023/09/08 00:36:34;;;;;;;;;15.00;14.67;;;;;24.94;50.11;101828.32;110155;1265;19376;-36
2023/09/08 00:39:01;;;;;;;;;18.00;18.00;;;;;24.94;49.93;101828.33;110177;1251;22723;-35
2023/09/08 00:41:28;;;;;;;;;15.00;14.00;;;;;24.93;49.87;101825.36;110169;1259;20159;-36
2023/09/08 00:43:56;;;;;;;;;18.00;15.00;;;;;24.91;50.05;101826.61;110124;1259;21849;-36
2023/09/08 00:46:23;;;;;;;;;16.00;15.00;;;;;24.90;49.94;101826.29;110169;1253;20059;-36
2023/09/08 00:48:50;;;;;;;;;14.00;14.00;;;;;24.89;50.10;101829.58;110064;1250;20151;-36
2023/09/08 00:51:18;;;;;;;;;18.33;14.67;;;;;24.89;49.97;101830.56;110093;1251;20923;-36
2023/09/08 00:53:45;;;;;;;;;21.50;20.50;;;;;24.86;49.97;101827.10;110088;1249;18985;-36
2023/09/08 00:56:12;;;;;;;;;14.50;14.50;;;;;24.89;49.69;101826.78;110115;1265;18831;-36
2023/09/08 00:58:40;;;;;;;;;19.00;18.00;;;;;24.90;49.70;101828.59;110103;1259;20565;-36
2023/09/08 01:01:07;;;;;;;;;18.67;18.00;;;;;24.90;49.88;101831.99;110130;1253;20074;-36
2023/09/08 01:03:35;;;;;;;;;23.50;22.00;;;;;24.91;49.69;101831.27;110098;1251;20169;-36
2023/09/08 01:06:02;;;;;;;;;23.50;23.00;;;;;24.89;49.55;101826.08;110173;1265;19354;-35
2023/09/08 01:08:29;;;;;;;;;20.00;20.00;;;;;24.90;49.73;101825.02;110179;1251;20030;-36
2023/09/08 01:10:56;;;;;;;;;14.00;13.00;;;;;24.88;49.53;101821.85;110151;1265;18670;-36
2023/09/08 01:13:24;;;;;;;;;18.00;17.00;;;;;24.86;49.50;101826.12;110180;1251;22124;-36
2023/09/08 01:15:51;;;;;;;;;24.00;24.00;;;;;24.85;49.42;101828.42;110142;1265;18642;-35
2023/09/08 01:18:18;;;;;;;;;18.00;16.00;;;;;24.87;49.40;101826.73;110138;1265;20963;-35
2023/09/08 01:20:46;;;;;;;;;19.00;18.00;;;;;24.86;49.41;101829.46;110175;1265;22761;-36
2023/09/08 01:23:13;;;;;;;;;15.00;15.00;;;;;24.84;49.48;101829.95;110109;1251;20059;-35
2023/09/08 01:25:40;;;;;;;;;16.00;15.00;;;;;24.84;49.12;101831.27;110144;1265;20057;-35
2023/09/08 01:28:08;;;;;;;;;18.00;17.00;;;;;24.87;49.29;101836.42;110131;1265;21994;-35
2023/09/08 01:30:35;;;;;;;;;14.00;14.00;;;;;24.85;49.30;101834.88;110115;1265;18661;-35
2023/09/08 01:33:03;;;;;;;;;18.00;17.00;;;;;24.86;49.24;101835.61;110107;1251;22569;-35
2023/09/08 01:35:30;;;;;;;;;18.00;17.00;;;;;24.86;49.02;101833.25;110131;1251;20777;-36
2023/09/08 01:37:57;;;;;;;;;15.00;15.00;;;;;24.84;48.99;101828.75;110109;1257;20116;-36
2023/09/08 01:40:24;;;;;;;;;18.00;17.00;;;;;24.83;48.98;101829.08;110094;1265;18706;-35
2023/09/08 01:42:52;;;;;;;;;16.00;15.00;;;;;24.82;49.19;101824.03;110109;1265;19584;-35
2023/09/08 01:45:19;;;;;;;;;16.00;15.00;;;;;24.82;48.93;101823.92;110118;1250;20120;-36
2023/09/08 01:47:46;;;;;;;;;18.00;17.00;;;;;24.82;48.94;101821.51;110115;1265;18757;-35
2023/09/08 01:50:15;;;;;;;;;15.00;15.00;;;;;24.79;49.19;101822.16;110122;1251;20855;-35
2023/09/08 01:52:42;;;;;;;;;15.00;14.50;;;;;24.80;49.05;101819.27;110126;1265;18613;-35
2023/09/08 01:55:11;;;;;;;;;15.00;14.00;;;;;24.81;49.03;101816.41;110164;1253;20219;-35
2023/09/08 01:57:39;;;;;;;;;15.00;15.00;;;;;24.80;48.99;101814.48;110162;1265;19321;-35
2023/09/08 02:00:06;;;;;;;;;18.00;18.00;;;;;24.78;49.20;101814.16;110153;1253;22159;-35
2023/09/08 02:02:33;;;;;;;;;17.33;15.00;;;;;24.80;49.02;101810.81;110177;1251;20149;-35
2023/09/08 02:05:01;;;;;;;;;17.00;16.33;;;;;24.80;48.95;101807.91;110164;1265;22352;-37
2023/09/08 02:07:28;;;;;;;;;;;;;;;24.78;48.87;101804.19;110180;1265;20049;-35
2023/09/08 02:09:55;;;;;;;;;14.00;14.00;;;;;24.79;48.97;101806.48;110200;1250;18336;-35
2023/09/08 02:12:22;;;;;;;;;18.00;15.00;;;;;24.78;48.96;101800.68;110179;1259;20937;-35
2023/09/08 02:14:51;;;;;;;;;17.33;17.33;;;;;24.79;48.81;101796.19;110161;1251;20061;-36
2023/09/08 02:17:19;;;;;;;;;14.67;14.33;;;;;24.78;48.87;101796.63;110169;1251;20226;-36
2023/09/08 02:19:46;;;;;;;;;19.00;18.00;;;;;24.77;48.91;101796.02;110174;1266;19385;-36
2023/09/08 02:22:13;;;;;;;;;17.00;15.00;;;;;24.76;49.05;101794.27;110158;1265;18553;-36
2023/09/08 02:24:41;;;;;;;;;18.00;17.00;;;;;24.74;49.04;101794.15;110168;1265;18618;-36
2023/09/08 02:27:08;;;;;;;;;15.00;15.00;;;;;24.76;49.07;101794.05;110171;1253;20914;-36
2023/09/08 02:29:36;;;;;;;;;17.00;15.00;;;;;24.75;49.20;101791.85;110102;1265;19913;-36
2023/09/08 02:32:03;;;;;;;;;14.00;14.00;;;;;24.75;48.91;101793.05;110103;1249;20318;-36
2023/09/08 02:34:31;;;;;;;;;17.00;14.00;;;;;24.74;48.96;101790.80;110142;1251;19362;-35
2023/09/08 02:36:58;;;;;;;;;14.00;14.00;;;;;24.75;49.01;101789.55;110096;1251;21436;-35
2023/09/08 02:39:26;;;;;;;;;13.00;11.00;;;;;24.73;49.02;101788.12;110100;1265;18731;-37
2023/09/08 02:41:54;;;;;;;;;14.00;14.00;;;;;24.73;48.93;101787.46;110070;1266;19369;-36
2023/09/08 02:44:22;;;;;;;;;13.50;13.00;;;;;24.75;48.88;101789.88;110109;1265;22121;-36
2023/09/08 02:46:49;;;;;;;;;18.00;14.00;;;;;24.78;48.96;101789.34;110145;1251;20219;-37
2023/09/08 02:49:16;;;;;;;;;17.33;15.00;;;;;24.78;48.87;101788.95;110192;1265;19387;-35
2023/09/08 02:51:43;;;;;;;;;13.00;13.00;;;;;24.75;48.78;101788.83;110157;1266;21080;-36
2023/09/08 02:54:11;;;;;;;;;14.50;13.50;;;;;24.74;48.88;101785.94;110163;1265;18703;-36
2023/09/08 02:56:38;;;;;;;;;10.00;10.00;;;;;24.75;48.78;101788.45;110149;1265;19345;-36
2023/09/08 02:59:05;;;;;;;;;17.50;14.00;;;;;24.76;48.87;101788.83;110171;1251;19994;-36
2023/09/08 03:01:33;;;;;;;;;15.00;14.00;;;;;24.74;48.68;101786.53;110155;1253;20162;-36
2023/09/08 03:04:00;;;;;;;;;14.33;13.00;;;;;24.74;48.67;101782.31;110153;1250;22324;-36
2023/09/08 03:06:27;;;;;;;;;13.00;11.00;;;;;24.75;48.73;101782.70;110167;1251;20061;-36
2023/09/08 03:08:55;;;;;;;;;14.50;14.00;;;;;24.76;48.38;101782.70;110085;1253;22499;-36
2023/09/08 03:11:22;;;;;;;;;17.00;17.00;;;;;24.74;48.61;101780.23;110119;1251;20650;-35
2023/09/08 03:13:49;;;;;;;;;14.00;13.67;;;;;24.74;48.56;101780.39;110181;1250;18629;-36
2023/09/08 03:16:16;;;;;;;;;17.00;15.00;;;;;24.73;48.64;101778.92;110149;1259;20083;-36
2023/09/08 03:18:44;;;;;;;;;15.00;15.00;;;;;24.73;48.65;101778.36;110257;1251;20922;-36
2023/09/08 03:21:11;;;;;;;;;14.00;13.00;;;;;24.73;48.55;101782.96;110221;1264;22491;-37
2023/09/08 03:23:38;;;;;;;;;14.00;14.00;;;;;24.72;48.43;101782.30;110202;1259;20122;-36
2023/09/08 03:26:06;;;;;;;;;15.00;13.00;;;;;24.72;48.55;101783.52;110200;1264;21789;-36
2023/09/08 03:28:33;;;;;;;;;12.00;11.00;;;;;24.74;48.62;101782.14;110283;1259;19934;-36
2023/09/08 03:31:00;;;;;;;;;14.00;14.00;;;;;24.74;48.41;101784.06;110112;1251;20078;-36
2023/09/08 03:33:28;;;;;;;;;14.00;13.00;;;;;24.72;48.51;101784.50;110189;1250;22805;-36
2023/09/08 03:35:55;;;;;;;;;15.00;14.50;;;;;24.72;48.42;101788.23;110280;1250;20099;-35
2023/09/08 03:38:22;;;;;;;;;18.50;15.00;;;;;24.72;48.49;101787.08;110251;1261;20026;-36
2023/09/08 03:40:50;;;;;;;;;17.00;15.00;;;;;24.73;48.60;101790.80;110220;1264;19377;-36
2023/09/08 03:43:17;;;;;;;;;14.00;13.00;;;;;24.72;48.68;101787.24;110166;1250;20017;-36
2023/09/08 03:45:44;;;;;;;;;17.00;17.00;;;;;24.71;48.41;101784.45;110169;1251;20280;-36
2023/09/08 03:48:12;;;;;;;;;15.00;14.00;;;;;24.71;48.67;101784.94;110269;1251;20794;-36
2023/09/08 03:50:39;;;;;;;;;16.00;14.50;;;;;24.69;48.74;101782.31;110270;1251;20080;-36
2023/09/08 03:53:06;;;;;;;;;15.50;14.50;;;;;24.69;48.72;101785.27;110276;1250;20142;-35
2023/09/08 03:55:33;;;;;;;;;17.00;14.50;;;;;24.69;48.76;101787.02;110257;1264;19408;-35
2023/09/08 03:58:01;;;;;;;;;14.00;13.00;;;;;24.70;48.51;101789.76;110276;1250;19997;-35
2023/09/08 04:00:28;;;;;;;;;17.00;17.00;;;;;24.69;48.76;101787.52;110273;1264;18799;-35
2023/09/08 04:02:56;;;;;;;;;19.00;15.00;;;;;24.66;48.76;101787.77;110174;1250;20819;-36
2023/09/08 04:05:24;;;;;;;;;14.00;13.00;;;;;24.69;48.75;101789.59;110255;1250;22155;-36
2023/09/08 04:07:51;;;;;;;;;20.00;17.00;;;;;24.69;48.53;101794.09;110261;1251;21211;-35
2023/09/08 04:10:18;;;;;;;;;17.00;14.00;;;;;24.69;48.63;101789.20;110258;1265;19337;-36
2023/09/08 04:12:46;;;;;;;;;17.00;14.00;;;;;24.69;48.68;101789.81;110293;1265;19929;-35
2023/09/08 04:15:13;;;;;;;;;17.00;14.00;;;;;24.68;48.51;101791.13;110281;1250;20119;-35
2023/09/08 04:17:40;;;;;;;;;17.00;17.00;;;;;24.70;48.45;101788.34;110260;1257;20759;-35
2023/09/08 04:20:08;;;;;;;;;16.33;15.00;;;;;24.67;48.55;101786.52;110216;1251;22349;-36
2023/09/08 04:22:36;;;;;;;;;14.00;13.00;;;;;24.67;48.46;101785.48;110314;1264;18736;-36
2023/09/08 04:25:03;;;;;;;;;14.50;13.50;;;;;24.67;48.49;101788.27;110270;1264;19253;-35
2023/09/08 04:27:30;;;;;;;;;22.00;21.00;;;;;24.71;48.48;101788.34;110285;1250;20032;-35
2023/09/08 04:29:58;;;;;;;;;22.00;19.50;;;;;24.69;47.84;101789.27;110300;1250;20182;-35
2023/09/08 04:32:26;;;;;;;;;22.00;22.00;;;;;24.53;48.01;101785.89;110269;1251;20940;-35
2023/09/08 04:34:53;;;;;;;;;28.00;25.00;;;;;24.47;48.18;101783.09;110278;1264;18630;-35
2023/09/08 04:37:21;;;;;;;;;33.00;28.00;;;;;24.43;48.12;101785.48;110204;1256;20122;-35
2023/09/08 04:39:48;;;;;;;;;32.00;32.00;;;;;24.33;48.63;101787.03;110244;1264;19342;-35
2023/09/08 04:42:15;;;;;;;;;35.50;35.00;;;;;23.57;49.62;101794.73;110263;1264;18595;-36
2023/09/08 04:44:43;;;;;;;;;34.00;32.67;;;;;22.99;51.31;101792.73;110270;1250;20077;-35
2023/09/08 04:47:10;;;;;;;;;30.00;29.00;;;;;22.70;51.91;101790.91;110270;1264;19379;-35
2023/09/08 04:49:38;;;;;;;;;40.00;37.00;;;;;22.30;53.01;101786.50;110286;1251;19977;-35
2023/09/08 04:52:05;;;;;;;;;39.00;36.00;;;;;22.17;53.85;101783.45;110280;1258;19875;-35
2023/09/08 04:54:32;;;;;;;;;28.50;26.00;;;;;22.09;53.99;101787.50;110250;1259;22696;-34
2023/09/08 04:57:00;;;;;;;;;29.67;28.33;;;;;22.70;52.61;101784.52;110257;1250;20029;-35
2023/09/08 04:59:27;;;;;;;;;28.00;27.00;;;;;23.24;51.31;101788.30;110263;1250;18887;-35
2023/09/08 05:01:54;;;;;;;;;35.67;32.00;;;;;23.56;50.50;101788.82;110259;1264;22737;-35
2023/09/08 05:04:22;;;;;;;;;36.00;35.00;;;;;22.73;51.83;101789.84;110278;1250;20057;-35
2023/09/08 05:06:49;;;;;;;;;34.00;32.50;;;;;22.43;52.77;101788.67;110275;1250;22749;-35
2023/09/08 05:09:16;;;;;;;;;36.33;33.00;;;;;22.22;53.55;101786.12;110269;1264;20895;-35
2023/09/08 05:11:44;;;;;;;;;31.50;29.50;;;;;22.15;54.10;101785.76;110088;1259;19944;-35
2023/09/08 05:14:11;;;;;;;;;33.67;31.00;;;;;21.94;54.73;101785.46;110219;1257;22621;-35
2023/09/08 05:16:45;;;;;;;;;31.00;29.00;;;;;21.71;55.80;101785.48;110199;1265;19381;-35
2023/09/08 05:19:13;;;;;;;;;32.50;30.00;;;;;21.84;55.40;101787.41;110157;1250;22666;-34
2023/09/08 05:21:41;;;;;;;;;34.00;33.00;;;;;21.68;55.86;101787.02;110227;1250;18709;-35
2023/09/08 05:24:08;;;;;;;;;36.67;31.00;;;;;21.84;55.64;101785.98;110205;1250;20758;-37
2023/09/08 05:26:36;;;;;;;;;31.00;27.00;;;;;21.92;55.25;101790.04;110172;1250;20208;-35
2023/09/08 05:29:03;;;;;;;;;38.50;34.00;;;;;21.95;55.05;101791.88;110255;1265;21967;-36
2023/09/08 05:31:30;;;;;;;;;33.00;30.00;;;;;21.90;55.01;101787.77;110257;1265;19354;-35
2023/09/08 05:33:58;;;;;;;;;35.00;33.00;;;;;21.73;55.18;101786.88;110278;1264;18668;-35
2023/09/08 05:36:25;;;;;;;;;33.00;32.00;;;;;21.79;55.06;101788.05;110277;1250;20223;-35
2023/09/08 05:38:52;;;;;;;;;34.00;33.50;;;;;21.91;54.78;101793.63;110258;1250;22803;-35
2023/09/08 05:41:19;;;;;;;;;29.00;27.00;;;;;22.04;54.37;101791.90;110316;1251;20019;-35
2023/09/08 05:43:47;;;;;;;;;28.00;27.00;;;;;22.02;54.43;101790.02;110269;1265;22203;-35
2023/09/08 05:46:14;;;;;;;;;32.00;30.00;;;;;22.08;54.20;101795.00;110273;1250;20809;-35
2023/09/08 05:48:41;;;;;;;;;36.00;33.00;;;;;22.06;53.99;101793.33;110256;1251;21989;-36
2023/09/08 05:51:09;;;;;;;;;36.00;30.00;;;;;21.85;54.63;101791.64;110269;1264;21204;-36
2023/09/08 05:53:39;;;;;;;;;35.00;27.00;;;;;21.83;54.78;101789.91;110245;1251;20834;-36
2023/09/08 05:56:06;;;;;;;;;36.00;33.00;;;;;21.86;54.59;101788.75;110262;1250;21042;-35
2023/09/08 05:58:34;;;;;;;;;31.00;28.00;;;;;22.12;54.27;101789.84;110263;1257;20118;-36
2023/09/08 06:01:01;;;;;;;;;35.00;31.00;;;;;22.16;54.12;101790.48;110258;1265;19382;-35
2023/09/08 06:03:28;;;;;;;;;32.00;29.50;;;;;22.08;54.14;101789.54;110280;1264;18551;-35
2023/09/08 06:05:55;;;;;;;;;28.00;28.00;;;;;22.23;53.85;101787.17;110257;1265;18731;-35
2023/09/08 06:08:23;;;;;;;;;32.67;31.00;;;;;22.22;53.97;101790.01;110294;1251;20743;-35
2023/09/08 06:10:50;;;;;;;;;37.00;35.00;;;;;22.28;53.99;101785.88;110300;1265;19821;-36
2023/09/08 06:13:17;;;;;;;;;40.00;34.00;;;;;22.40;53.55;101785.57;110262;1250;20367;-36
2023/09/08 06:15:45;;;;;;;;;35.00;34.00;;;;;22.51;53.40;101786.84;110249;1251;21361;-36
2023/09/08 06:18:12;;;;;;;;;37.00;32.00;;;;;22.45;53.68;101789.50;110266;1264;18653;-35
2023/09/08 06:20:39;;;;;;;;;34.00;34.00;;;;;22.50;53.61;101788.20;110228;1264;18742;-37
2023/09/08 06:23:07;;;;;;;;;38.50;34.50;;;;;22.48;53.74;101788.44;110262;1264;19647;-36
2023/09/08 06:25:34;;;;;;;;;43.00;35.00;;;;;22.49;53.74;101788.19;110284;1251;21159;-35
2023/09/08 06:28:01;;;;;;;;;40.00;35.50;;;;;22.47;54.01;101785.82;110270;1265;18773;-35
2023/09/08 06:30:29;;;;;;;;;40.00;37.50;;;;;22.45;54.23;101783.49;110260;1250;20724;-35
2023/09/08 06:32:56;;;;;;;;;37.00;35.00;;;;;22.50;54.20;101776.13;110261;1249;20055;-35
2023/09/08 06:35:23;;;;;;;;;37.00;34.50;;;;;22.56;54.33;101774.27;110208;1251;22668;-35
2023/09/08 06:37:51;;;;;;;;;39.00;32.00;;;;;22.73;53.98;101775.70;110186;1264;19360;-35
2023/09/08 06:40:18;;;;;;;;;38.00;35.00;;;;;22.74;53.85;101776.32;110228;1248;19979;-35
2023/09/08 06:42:45;;;;;;;;;41.00;32.00;;;;;22.88;53.80;101775.77;110169;1264;20053;-36
2023/09/08 06:45:13;;;;;;;;;36.50;33.00;;;;;22.92;53.64;101774.32;110202;1256;22686;-35
2023/09/08 06:47:40;;;;;;;;;31.67;31.00;;;;;22.91;53.81;101775.25;110246;1250;20223;-35
2023/09/08 06:50:07;;;;;;;;;42.50;34.00;;;;;22.97;53.75;101776.66;110263;1264;18745;-36
2023/09/08 06:52:35;;;;;;;;;40.00;36.50;;;;;22.99;53.65;101772.09;110295;1264;19241;-35
2023/09/08 06:55:02;;;;;;;;;35.67;35.33;;;;;22.89;53.99;101773.80;110271;1265;18674;-36
2023/09/08 06:57:29;;;;;;;;;39.00;33.00;;;;;23.03;53.41;101776.92;110268;1249;20122;-36
2023/09/08 06:59:57;;;;;;;;;37.50;34.50;;;;;22.80;54.11;101773.54;110250;1264;19473;-36
2023/09/08 07:02:24;;;;;;;;;37.00;35.00;;;;;22.81;54.30;101768.80;110291;1265;20200;-36
2023/09/08 07:04:51;;;;;;;;;33.00;32.00;;;;;23.00;53.88;101770.02;110280;1259;18771;-36
2023/09/08 07:07:20;;;;;;;;;36.00;33.00;;;;;23.27;53.27;101769.58;110293;1250;22009;-35
2023/09/08 07:09:47;;;;;;;;;39.50;36.50;;;;;23.23;53.26;101771.63;110266;1265;18561;-35
2023/09/08 07:12:14;;;;;;;;;30.50;28.00;;;;;23.18;53.57;101771.86;110285;1251;20186;-36
2023/09/08 07:14:42;;;;;;;;;29.00;27.50;;;;;23.37;53.29;101772.70;110252;1257;20698;-35
2023/09/08 07:17:09;;;;;;;;;29.00;27.00;;;;;23.54;53.15;101772.40;110171;1250;20153;-36
2023/09/08 07:19:36;;;;;;;;;34.00;33.00;;;;;23.58;53.26;101771.35;110194;1264;20914;-36
2023/09/08 07:22:04;;;;;;;;;32.50;30.00;;;;;23.80;52.85;101768.95;110267;1264;19355;-35
2023/09/08 07:24:31;;;;;;;;;34.00;29.67;;;;;23.75;53.06;101770.40;110255;1251;20001;-34
2023/09/08 07:26:58;;;;;;;;;37.00;34.00;;;;;23.77;52.81;101769.10;110247;1249;20214;-35
2023/09/08 07:29:25;;;;;;;;;30.50;29.00;;;;;23.94;52.48;101769.51;110258;1251;20844;-35
2023/09/08 07:31:53;;;;;;;;;27.00;27.00;;;;;24.01;52.17;101768.44;110284;1259;22715;-34
2023/09/08 07:34:20;;;;;;;;;30.00;27.00;;;;;24.20;51.53;101766.16;110286;1250;20165;-38
2023/09/08 07:36:47;;;;;;;;;28.00;27.00;;;;;24.40;51.57;101764.66;110238;1256;20676;-35
2023/09/08 07:39:15;;;;;;;;;29.00;27.50;;;;;24.42;51.62;101767.40;110247;1264;18530;-35
2023/09/08 07:41:42;;;;;;;;;29.00;28.00;;;;;24.52;51.41;101767.21;110251;1250;18838;-35
2023/09/08 07:44:10;;;;;;;;;25.00;25.00;;;;;24.61;51.27;101766.84;110260;1257;20717;-36
2023/09/08 07:46:37;;;;;;;;;27.67;25.00;;;;;24.70;50.77;101763.89;110235;1257;19884;-35
2023/09/08 07:49:04;;;;;;;;;26.50;25.50;;;;;24.75;50.90;101765.92;110252;1250;20230;-35
2023/09/08 07:51:32;;;;;;;;;29.00;26.00;;;;;24.82;51.09;101766.59;110272;1251;20824;-35
2023/09/08 07:53:59;;;;;;;;;27.00;27.00;;;;;24.93;50.94;101763.09;110264;1264;18524;-35
2023/09/08 07:56:26;;;;;;;;;29.33;28.00;;;;;24.96;50.65;101762.21;110282;1265;21734;-35
2023/09/08 07:58:54;;;;;;;;;28.00;26.00;;;;;25.02;50.42;101764.83;110305;1264;19450;-36
2023/09/08 08:01:21;;;;;;;;;29.00;27.50;;;;;25.05;50.28;101763.77;110279;1251;20014;-36
2023/09/08 08:03:48;;;;;;;;;22.00;22.00;;;;;25.09;50.18;101763.11;110249;1251;21284;-36
2023/09/08 08:06:16;;;;;;;;;23.50;22.00;;;;;25.13;49.83;101764.87;110269;1251;20639;-35
2023/09/08 08:08:43;;;;;;;;;24.00;23.00;;;;;25.15;49.85;101762.79;110296;1264;18662;-36
2023/09/08 08:11:10;;;;;;;;;23.00;22.00;;;;;25.10;49.53;101761.20;110287;1264;18754;-36
2023/09/08 08:13:38;;;;;;;;;26.50;25.00;;;;;25.07;49.35;101759.94;110279;1265;19558;-35
2023/09/08 08:16:05;;;;;;;;;29.00;25.50;;;;;25.19;49.20;101756.74;110243;1251;20010;-35
2023/09/08 08:18:32;;;;;;;;;25.50;23.50;;;;;25.29;49.00;101756.91;110283;1265;24225;-36
2023/09/08 08:21:00;;;;;;;;;22.00;21.00;;;;;25.35;49.15;101753.33;110242;1250;20724;-36
2023/09/08 08:23:27;;;;;;;;;25.00;22.00;;;;;25.36;49.03;101756.30;110283;1264;23399;-37
2023/09/08 08:25:54;;;;;;;;;24.67;23.00;;;;;25.33;49.31;101754.37;110260;1250;22665;-35
2023/09/08 08:28:22;;;;;;;;;23.00;23.00;;;;;25.27;49.25;101754.33;110263;1251;20638;-36
2023/09/08 08:30:49;;;;;;;;;21.33;20.00;;;;;25.28;49.42;101753.94;110283;1250;20012;-36
2023/09/08 08:33:17;;;;;;;;;23.00;22.50;;;;;25.27;49.60;101751.42;110256;1250;21436;-35
2023/09/08 08:35:44;;;;;;;;;22.00;19.00;;;;;25.27;49.69;101747.41;110302;1249;20833;-36
2023/09/08 08:38:11;;;;;;;;;22.00;22.00;;;;;25.30;49.62;101745.33;110279;1257;19894;-36
2023/09/08 08:40:39;;;;;;;;;22.50;21.00;;;;;25.29;49.66;101748.50;110296;1265;18973;-35
2023/09/08 08:43:06;;;;;;;;;21.00;19.00;;;;;25.29;50.01;101744.83;110310;1250;19901;-35
2023/09/08 08:45:34;;;;;;;;;23.00;22.00;;;;;25.27;51.04;101742.48;110287;1257;19814;-35
2023/09/08 08:48:01;;;;;;;;;19.00;18.00;;;;;25.24;50.64;101739.73;110301;1264;18767;-36
2023/09/08 08:50:28;;;;;;;;;20.00;19.00;;;;;25.23;50.94;101739.02;110276;1257;20608;-35
2023/09/08 08:52:55;;;;;;;;;21.00;18.00;;;;;25.23;50.95;101736.08;110294;1264;18624;-36
2023/09/08 08:55:23;;;;;;;;;17.00;15.00;;;;;25.26;51.08;101739.80;110272;1251;20089;-36
2023/09/08 08:57:50;;;;;;;;;17.00;14.33;;;;;25.25;50.90;101737.98;110263;1251;22262;-36
2023/09/08 09:00:18;;;;;;;;;14.50;14.00;;;;;25.26;50.90;101734.91;110247;1251;20014;-36
2023/09/08 09:02:48;;;;;;;;;13.00;12.00;;;;;25.22;51.06;101733.48;110182;1250;20202;-35
2023/09/08 09:05:16;;;;;;;;;13.00;12.00;;;;;25.22;51.03;101731.79;110192;1251;21113;-37
2023/09/08 09:07:43;;;;;;;;;17.00;14.00;;;;;25.28;51.18;101732.99;110134;1249;18570;-37
2023/09/08 09:10:10;;;;;;;;;17.00;17.00;;;;;25.43;50.80;101728.30;110207;1265;18944;-37
2023/09/08 09:12:38;;;;;;;;;14.00;14.00;;;;;25.38;50.61;101724.96;110165;1265;19303;-37
2023/09/08 09:15:05;;;;;;;;;14.00;14.00;;;;;25.35;50.80;101724.75;110202;1248;21417;-37
2023/09/08 09:17:33;;;;;;;;;11.00;11.00;;;;;25.33;50.79;101720.47;110236;1258;20092;-37
2023/09/08 09:20:00;;;;;;;;;11.00;11.00;;;;;25.38;50.88;101720.79;110195;1250;20650;-36
2023/09/08 09:22:27;;;;;;;;;18.00;15.00;;;;;25.37;50.92;101724.36;110272;1251;20006;-35
2023/09/08 09:24:55;;;;;;;;;13.50;13.50;;;;;25.37;50.79;101720.67;110273;1265;18862;-35
2023/09/08 09:27:22;;;;;;;;;14.00;13.00;;;;;25.36;50.85;101720.80;110317;1256;21026;-35
2023/09/08 09:29:50;;;;;;;;;13.00;11.00;;;;;25.37;51.16;101715.85;110300;1251;20050;-36
2023/09/08 09:32:17;;;;;;;;;11.00;11.00;;;;;25.37;50.89;101719.09;110272;1249;22655;-35
2023/09/08 09:34:45;;;;;;;;;10.00;10.00;;;;;25.33;51.11;101722.66;110270;1265;21089;-36
2023/09/08 09:37:13;;;;;;;;;10.00;10.00;;;;;25.33;51.17;101721.90;110234;1250;20042;-35
2023/09/08 09:39:40;;;;;;;;;14.00;14.00;;;;;25.29;51.61;101719.60;110221;1265;18649;-36
2023/09/08 09:42:07;;;;;;;;;14.00;13.00;;;;;25.31;51.46;101721.14;110211;1249;22239;-37
2023/09/08 09:44:35;;;;;;;;;14.00;13.00;;;;;25.34;50.97;101720.20;110207;1250;20065;-37
2023/09/08 09:47:02;;;;;;;;;10.67;10.00;;;;;25.34;50.89;101717.23;110208;1249;23480;-37
2023/09/08 09:49:31;;;;;;;;;11.00;11.00;;;;;25.33;51.09;101711.59;110204;1264;19312;-37
2023/09/08 09:51:59;;;;;;;;;13.00;11.00;;;;;25.34;50.87;101710.21;110205;1250;19956;-37
2023/09/08 09:54:26;;;;;;;;;11.67;11.00;;;;;25.33;50.71;101708.36;110213;1250;18892;-37
2023/09/08 09:56:54;;;;;;;;;10.67;10.67;;;;;25.33;50.76;101707.75;110174;1264;19343;-37
2023/09/08 09:59:21;;;;;;;;;10.00;10.00;;;;;25.31;50.93;101704.73;110216;1250;20022;-35
2023/09/08 10:01:48;;;;;;;;;11.00;10.00;;;;;25.33;50.82;101703.52;110222;1256;21416;-36
2023/09/08 10:04:16;;;;;;;;;14.00;11.00;;;;;25.35;50.60;101699.23;110194;1251;20804;-35
2023/09/08 10:06:43;;;;;;;;;11.00;11.00;;;;;25.35;50.55;101700.29;110210;1250;20825;-37
2023/09/08 10:09:13;;;;;;;;;10.00;10.00;;;;;25.34;50.64;101698.09;110196;1250;20165;-36
2023/09/08 10:11:40;;;;;;;;;12.00;12.00;;;;;25.33;50.68;101698.20;110199;1265;20896;-35
2023/09/08 10:14:11;;;;;;;;;10.00;10.00;;;;;25.34;50.50;101694.09;110149;1259;21067;-36
2023/09/08 10:16:38;;;;;;;;;9.00;9.00;;;;;25.35;50.36;101697.70;110148;1265;22438;-35
2023/09/08 10:19:05;;;;;;;;;9.67;9.67;;;;;25.35;50.26;101690.80;110183;1250;19344;-35
2023/09/08 10:21:32;;;;;;;;;10.00;10.00;;;;;25.38;50.19;101688.31;110169;1251;19650;-35
2023/09/08 10:24:00;;;;;;;;;10.00;10.00;;;;;25.39;49.86;101690.61;110156;1251;20162;-36
2023/09/08 10:26:27;;;;;;;;;11.00;10.00;;;;;25.39;49.95;101685.46;110155;1265;19387;-35
2023/09/08 10:28:55;;;;;;;;;10.00;9.00;;;;;25.36;50.07;101686.52;110158;1265;18639;-35
2023/09/08 10:31:23;;;;;;;;;11.00;11.00;;;;;25.37;50.15;101682.23;110143;1265;18710;-36
2023/09/08 10:33:50;;;;;;;;;9.00;9.00;;;;;25.38;49.72;101680.80;110166;1252;20559;-35
2023/09/08 10:36:17;;;;;;;;;10.50;10.50;;;;;25.38;49.73;101677.52;110164;1250;18601;-35
2023/09/08 10:38:47;;;;;;;;;10.33;10.00;;;;;25.39;49.68;101677.17;110179;1251;20225;-36
2023/09/08 10:41:14;;;;;;;;;9.50;9.50;;;;;25.39;49.74;101677.13;110164;1251;20939;-35
2023/09/08 10:43:42;;;;;;;;;10.00;10.00;;;;;25.37;49.68;101676.02;110160;1251;20030;-35
2023/09/08 10:46:09;;;;;;;;;9.00;9.00;;;;;25.37;49.93;101674.27;110162;1250;22441;-36
2023/09/08 10:48:37;;;;;;;;;7.00;7.00;;;;;25.35;50.08;101674.89;110155;1265;19347;-35
2023/09/08 10:51:04;;;;;;;;;9.00;9.00;;;;;25.35;50.22;101675.33;110141;1251;19664;-37
2023/09/08 10:53:31;;;;;;;;;14.00;13.50;;;;;25.36;49.69;101672.02;110108;1265;20208;-35
2023/09/08 10:55:58;;;;;;;;;9.00;9.00;;;;;25.39;49.59;101670.33;110139;1251;22027;-35
2023/09/08 10:58:26;;;;;;;;;9.00;9.00;;;;;25.36;50.28;101669.35;110161;1265;18605;-35
2023/09/08 11:00:57;;;;;;;;;9.00;9.00;;;;;25.35;50.36;101666.82;110177;1265;18544;-35
2023/09/08 11:03:24;;;;;;;;;11.67;10.00;;;;;25.36;50.44;101665.08;110160;1250;19309;-35